sensor_id;sensor_type;location;lat;lon;timestamp;temperature;humidity
15765;DHT22;7983;50.744;7.086;2023-12-14T00:00:05;9.80;99.90
15765;DHT22;7983;50.744;7.086;2023-12-14T00:02:36;9.80;99.90
15765;DHT22;7983;50.744;7.086;2023-12-14T00:05:06;9.80;99.90
15765;DHT22;7983;50.744;7.086;2023-12-14T00:07:34;9.80;99.90
15765;DHT22;7983;50.744;7.086;2023-12-14T00:09:59;9.80;99.90
15765;DHT22;7983;50.744;7.086;2023-12-14T00:12:27;9.80;99.90
15765;DHT22;7983;50.744;7.086;2023-12-14T00:14:58;9.80;99.90
15765;DHT22;7983;50.744;7.086;2023-12-14T00:17:24;9.70;99.90
15765;DHT22;7983;50.744;7.086;2023-12-14T00:19:52;9.70;99.90
15765;DHT22;7983;50.744;7.086;2023-12-14T00:22:22;9.70;99.90
15765;DHT22;7983;50.744;7.086;2023-12-14T00:24:47;9.70;99.90
15765;DHT22;7983;50.744;7.086;2023-12-14T00:27:13;9.70;99.90
15765;DHT22;7983;50.744;7.086;2023-12-14T00:29:39;9.70;99.90
15765;DHT22;7983;50.744;7.086;2023-12-14T00:32:05;9.60;99.90
15765;DHT22;7983;50.744;7.086;2023-12-14T00:34:32;9.60;99.90
15765;DHT22;7983;50.744;7.086;2023-12-14T00:36:58;9.60;99.90
15765;DHT22;7983;50.744;7.086;2023-12-14T00:39:26;9.60;99.90
15765;DHT22;7983;50.744;7.086;2023-12-14T00:41:53;9.60;99.90
15765;DHT22;7983;50.744;7.086;2023-12-14T00:44:19;9.60;99.90
15765;DHT22;7983;50.744;7.086;2023-12-14T00:46:47;9.60;99.90
15765;DHT22;7983;50.744;7.086;2023-12-14T00:49:15;9.60;99.90
15765;DHT22;7983;50.744;7.086;2023-12-14T00:51:43;9.70;99.90
15765;DHT22;7983;50.744;7.086;2023-12-14T00:54:09;9.70;99.90
15765;DHT22;7983;50.744;7.086;2023-12-14T00:56:36;9.70;99.90
15765;DHT22;7983;50.744;7.086;2023-12-14T00:59:05;9.70;99.90
15765;DHT22;7983;50.744;7.086;2023-12-14T01:01:32;9.70;99.90
15765;DHT22;7983;50.744;7.086;2023-12-14T01:03:58;9.70;99.90
15765;DHT22;7983;50.744;7.086;2023-12-14T01:06:25;9.80;99.90
15765;DHT22;7983;50.744;7.086;2023-12-14T01:08:55;9.80;99.90
15765;DHT22;7983;50.744;7.086;2023-12-14T01:11:23;9.80;99.90
15765;DHT22;7983;50.744;7.086;2023-12-14T01:13:49;9.70;99.90
15765;DHT22;7983;50.744;7.086;2023-12-14T01:16:19;9.80;99.90
15765;DHT22;7983;50.744;7.086;2023-12-14T01:18:49;9.80;99.90
15765;DHT22;7983;50.744;7.086;2023-12-14T01:21:17;9.80;99.90
15765;DHT22;7983;50.744;7.086;2023-12-14T01:23:45;9.90;99.90
15765;DHT22;7983;50.744;7.086;2023-12-14T01:26:13;9.90;99.90
15765;DHT22;7983;50.744;7.086;2023-12-14T01:28:38;9.90;99.90
15765;DHT22;7983;50.744;7.086;2023-12-14T01:31:04;9.90;99.90
15765;DHT22;7983;50.744;7.086;2023-12-14T01:33:30;9.90;99.90
15765;DHT22;7983;50.744;7.086;2023-12-14T01:35:55;9.90;99.90
15765;DHT22;7983;50.744;7.086;2023-12-14T01:38:21;9.90;99.90
15765;DHT22;7983;50.744;7.086;2023-12-14T01:40:46;9.90;99.90
15765;DHT22;7983;50.744;7.086;2023-12-14T01:43:14;9.90;99.90
15765;DHT22;7983;50.744;7.086;2023-12-14T01:45:40;9.90;99.90
15765;DHT22;7983;50.744;7.086;2023-12-14T01:48:05;9.90;99.90
15765;DHT22;7983;50.744;7.086;2023-12-14T01:50:31;9.80;99.90
15765;DHT22;7983;50.744;7.086;2023-12-14T01:52:56;9.80;99.90
15765;DHT22;7983;50.744;7.086;2023-12-14T01:55:22;9.80;99.90
15765;DHT22;7983;50.744;7.086;2023-12-14T01:57:48;9.70;99.90
15765;DHT22;7983;50.744;7.086;2023-12-14T02:00:22;9.70;99.90
15765;DHT22;7983;50.744;7.086;2023-12-14T02:02:51;9.70;99.90
15765;DHT22;7983;50.744;7.086;2023-12-14T02:05:19;9.70;99.90
15765;DHT22;7983;50.744;7.086;2023-12-14T02:07:47;9.70;99.90
15765;DHT22;7983;50.744;7.086;2023-12-14T02:10:15;9.70;99.90
15765;DHT22;7983;50.744;7.086;2023-12-14T02:12:40;9.70;99.90
15765;DHT22;7983;50.744;7.086;2023-12-14T02:15:08;9.70;99.90
15765;DHT22;7983;50.744;7.086;2023-12-14T02:17:34;9.60;99.90
15765;DHT22;7983;50.744;7.086;2023-12-14T02:20:02;9.60;99.90
15765;DHT22;7983;50.744;7.086;2023-12-14T02:22:40;9.60;99.90
15765;DHT22;7983;50.744;7.086;2023-12-14T02:25:13;9.60;99.90
15765;DHT22;7983;50.744;7.086;2023-12-14T02:27:39;9.60;99.90
15765;DHT22;7983;50.744;7.086;2023-12-14T02:30:05;9.70;99.90
15765;DHT22;7983;50.744;7.086;2023-12-14T02:32:33;9.60;99.90
15765;DHT22;7983;50.744;7.086;2023-12-14T02:34:58;9.60;99.90
15765;DHT22;7983;50.744;7.086;2023-12-14T02:37:26;9.60;99.90
15765;DHT22;7983;50.744;7.086;2023-12-14T02:39:52;9.70;99.90
15765;DHT22;7983;50.744;7.086;2023-12-14T02:42:17;9.60;99.90
15765;DHT22;7983;50.744;7.086;2023-12-14T02:44:43;9.60;99.90
15765;DHT22;7983;50.744;7.086;2023-12-14T02:47:13;9.60;99.90
15765;DHT22;7983;50.744;7.086;2023-12-14T02:49:39;9.60;99.90
15765;DHT22;7983;50.744;7.086;2023-12-14T02:52:04;9.60;99.90
15765;DHT22;7983;50.744;7.086;2023-12-14T02:54:30;9.60;99.90
15765;DHT22;7983;50.744;7.086;2023-12-14T02:56:56;9.60;99.90
15765;DHT22;7983;50.744;7.086;2023-12-14T02:59:24;9.60;99.90
15765;DHT22;7983;50.744;7.086;2023-12-14T03:01:49;9.60;99.90
15765;DHT22;7983;50.744;7.086;2023-12-14T03:04:15;9.70;99.90
15765;DHT22;7983;50.744;7.086;2023-12-14T03:06:41;9.60;99.90
15765;DHT22;7983;50.744;7.086;2023-12-14T03:09:06;9.70;99.90
15765;DHT22;7983;50.744;7.086;2023-12-14T03:11:32;9.60;99.90
15765;DHT22;7983;50.744;7.086;2023-12-14T03:13:57;9.60;99.90
15765;DHT22;7983;50.744;7.086;2023-12-14T03:16:24;9.70;99.90
15765;DHT22;7983;50.744;7.086;2023-12-14T03:18:49;9.70;99.90
15765;DHT22;7983;50.744;7.086;2023-12-14T03:21:19;9.70;99.90
15765;DHT22;7983;50.744;7.086;2023-12-14T03:23:47;9.60;99.90
15765;DHT22;7983;50.744;7.086;2023-12-14T03:26:12;9.70;99.90
15765;DHT22;7983;50.744;7.086;2023-12-14T03:28:40;9.70;99.90
15765;DHT22;7983;50.744;7.086;2023-12-14T03:31:06;9.70;99.90
15765;DHT22;7983;50.744;7.086;2023-12-14T03:33:33;9.70;99.90
15765;DHT22;7983;50.744;7.086;2023-12-14T03:35:59;9.80;99.90
15765;DHT22;7983;50.744;7.086;2023-12-14T03:38:25;9.70;99.90
15765;DHT22;7983;50.744;7.086;2023-12-14T03:40:50;9.70;99.90
15765;DHT22;7983;50.744;7.086;2023-12-14T03:43:16;9.70;99.90
15765;DHT22;7983;50.744;7.086;2023-12-14T03:45:42;9.80;99.90
15765;DHT22;7983;50.744;7.086;2023-12-14T03:48:07;9.80;99.90
15765;DHT22;7983;50.744;7.086;2023-12-14T03:50:35;9.80;99.90
15765;DHT22;7983;50.744;7.086;2023-12-14T03:53:01;9.80;99.90
15765;DHT22;7983;50.744;7.086;2023-12-14T03:55:26;9.80;99.90
15765;DHT22;7983;50.744;7.086;2023-12-14T03:57:54;9.80;99.90
15765;DHT22;7983;50.744;7.086;2023-12-14T04:00:20;9.80;99.90
15765;DHT22;7983;50.744;7.086;2023-12-14T04:02:48;9.80;99.90
15765;DHT22;7983;50.744;7.086;2023-12-14T04:05:17;9.80;99.90
15765;DHT22;7983;50.744;7.086;2023-12-14T04:07:46;9.80;99.90
15765;DHT22;7983;50.744;7.086;2023-12-14T04:10:15;9.80;99.90
15765;DHT22;7983;50.744;7.086;2023-12-14T04:12:43;9.70;99.90
15765;DHT22;7983;50.744;7.086;2023-12-14T04:15:10;9.70;99.90
15765;DHT22;7983;50.744;7.086;2023-12-14T04:17:38;9.70;99.90
15765;DHT22;7983;50.744;7.086;2023-12-14T04:20:07;9.70;99.90
15765;DHT22;7983;50.744;7.086;2023-12-14T04:22:33;9.60;99.90
15765;DHT22;7983;50.744;7.086;2023-12-14T04:25:01;9.60;99.90
15765;DHT22;7983;50.744;7.086;2023-12-14T04:27:29;9.60;99.90
15765;DHT22;7983;50.744;7.086;2023-12-14T04:29:55;9.60;99.90
15765;DHT22;7983;50.744;7.086;2023-12-14T04:32:21;9.50;99.90
15765;DHT22;7983;50.744;7.086;2023-12-14T04:34:48;9.50;99.90
15765;DHT22;7983;50.744;7.086;2023-12-14T04:37:14;9.50;99.90
15765;DHT22;7983;50.744;7.086;2023-12-14T04:39:42;9.40;99.90
15765;DHT22;7983;50.744;7.086;2023-12-14T04:42:08;9.50;99.90
15765;DHT22;7983;50.744;7.086;2023-12-14T04:44:34;9.50;99.90
15765;DHT22;7983;50.744;7.086;2023-12-14T04:47:02;9.50;99.90
15765;DHT22;7983;50.744;7.086;2023-12-14T04:49:30;9.40;99.90
15765;DHT22;7983;50.744;7.086;2023-12-14T04:51:55;9.40;99.90
15765;DHT22;7983;50.744;7.086;2023-12-14T04:54:23;9.40;99.90
15765;DHT22;7983;50.744;7.086;2023-12-14T04:56:49;9.30;99.90
15765;DHT22;7983;50.744;7.086;2023-12-14T04:59:17;9.30;99.90
15765;DHT22;7983;50.744;7.086;2023-12-14T05:01:44;9.30;99.90
15765;DHT22;7983;50.744;7.086;2023-12-14T05:04:10;9.30;99.90
15765;DHT22;7983;50.744;7.086;2023-12-14T05:06:36;9.30;99.90
15765;DHT22;7983;50.744;7.086;2023-12-14T05:09:03;9.20;99.90
15765;DHT22;7983;50.744;7.086;2023-12-14T05:11:30;9.20;99.90
15765;DHT22;7983;50.744;7.086;2023-12-14T05:13:56;9.20;99.90
15765;DHT22;7983;50.744;7.086;2023-12-14T05:16:22;9.20;99.90
15765;DHT22;7983;50.744;7.086;2023-12-14T05:18:52;9.20;99.90
15765;DHT22;7983;50.744;7.086;2023-12-14T05:21:18;9.20;99.90
15765;DHT22;7983;50.744;7.086;2023-12-14T05:23:47;9.20;99.90
15765;DHT22;7983;50.744;7.086;2023-12-14T05:26:12;9.10;99.90
15765;DHT22;7983;50.744;7.086;2023-12-14T05:28:38;9.10;99.90
15765;DHT22;7983;50.744;7.086;2023-12-14T05:31:04;9.10;99.90
15765;DHT22;7983;50.744;7.086;2023-12-14T05:33:29;9.10;99.90
15765;DHT22;7983;50.744;7.086;2023-12-14T05:35:56;9.10;99.90
15765;DHT22;7983;50.744;7.086;2023-12-14T05:38:22;9.10;99.90
15765;DHT22;7983;50.744;7.086;2023-12-14T05:40:50;9.10;99.90
15765;DHT22;7983;50.744;7.086;2023-12-14T05:43:18;9.20;99.90
15765;DHT22;7983;50.744;7.086;2023-12-14T05:45:46;9.10;99.90
15765;DHT22;7983;50.744;7.086;2023-12-14T05:48:19;9.10;99.90
15765;DHT22;7983;50.744;7.086;2023-12-14T05:50:44;9.10;99.90
15765;DHT22;7983;50.744;7.086;2023-12-14T05:53:10;9.10;99.90
15765;DHT22;7983;50.744;7.086;2023-12-14T05:55:41;9.10;99.90
15765;DHT22;7983;50.744;7.086;2023-12-14T05:58:09;9.10;99.90
15765;DHT22;7983;50.744;7.086;2023-12-14T06:00:35;9.10;99.90
15765;DHT22;7983;50.744;7.086;2023-12-14T06:03:01;9.10;99.90
15765;DHT22;7983;50.744;7.086;2023-12-14T06:05:27;9.10;99.90
15765;DHT22;7983;50.744;7.086;2023-12-14T06:07:53;9.00;99.90
15765;DHT22;7983;50.744;7.086;2023-12-14T06:10:19;9.00;99.90
15765;DHT22;7983;50.744;7.086;2023-12-14T06:12:44;9.00;99.90
15765;DHT22;7983;50.744;7.086;2023-12-14T06:15:13;8.90;99.90
15765;DHT22;7983;50.744;7.086;2023-12-14T06:17:41;8.90;99.90
15765;DHT22;7983;50.744;7.086;2023-12-14T06:20:08;8.90;99.90
15765;DHT22;7983;50.744;7.086;2023-12-14T06:22:39;8.80;99.90
15765;DHT22;7983;50.744;7.086;2023-12-14T06:25:05;8.80;99.90
15765;DHT22;7983;50.744;7.086;2023-12-14T06:27:33;8.80;99.90
15765;DHT22;7983;50.744;7.086;2023-12-14T06:29:59;8.80;99.90
15765;DHT22;7983;50.744;7.086;2023-12-14T06:32:24;8.70;99.90
15765;DHT22;7983;50.744;7.086;2023-12-14T06:34:50;8.70;99.90
15765;DHT22;7983;50.744;7.086;2023-12-14T06:37:16;8.70;99.90
15765;DHT22;7983;50.744;7.086;2023-12-14T06:39:42;8.70;99.90
15765;DHT22;7983;50.744;7.086;2023-12-14T06:42:07;8.70;99.90
15765;DHT22;7983;50.744;7.086;2023-12-14T06:44:33;8.70;99.90
15765;DHT22;7983;50.744;7.086;2023-12-14T06:46:59;8.60;99.90
15765;DHT22;7983;50.744;7.086;2023-12-14T06:49:25;8.60;99.90
15765;DHT22;7983;50.744;7.086;2023-12-14T06:51:51;8.60;99.90
15765;DHT22;7983;50.744;7.086;2023-12-14T06:54:17;8.50;99.90
15765;DHT22;7983;50.744;7.086;2023-12-14T06:56:43;8.60;99.90
15765;DHT22;7983;50.744;7.086;2023-12-14T06:59:08;8.50;99.90
15765;DHT22;7983;50.744;7.086;2023-12-14T07:01:34;8.50;99.90
15765;DHT22;7983;50.744;7.086;2023-12-14T07:04:00;8.50;99.90
15765;DHT22;7983;50.744;7.086;2023-12-14T07:06:25;8.50;99.90
15765;DHT22;7983;50.744;7.086;2023-12-14T07:08:51;8.40;99.90
15765;DHT22;7983;50.744;7.086;2023-12-14T07:11:19;8.40;99.90
15765;DHT22;7983;50.744;7.086;2023-12-14T07:13:49;8.40;99.90
15765;DHT22;7983;50.744;7.086;2023-12-14T07:16:17;8.40;99.90
15765;DHT22;7983;50.744;7.086;2023-12-14T07:18:43;8.30;99.90
15765;DHT22;7983;50.744;7.086;2023-12-14T07:21:10;8.40;99.90
15765;DHT22;7983;50.744;7.086;2023-12-14T07:23:36;8.30;99.90
15765;DHT22;7983;50.744;7.086;2023-12-14T07:26:05;8.30;99.90
15765;DHT22;7983;50.744;7.086;2023-12-14T07:28:30;8.30;99.90
15765;DHT22;7983;50.744;7.086;2023-12-14T07:30:56;8.30;99.90
15765;DHT22;7983;50.744;7.086;2023-12-14T07:33:22;8.20;99.90
15765;DHT22;7983;50.744;7.086;2023-12-14T07:35:50;8.20;99.90
15765;DHT22;7983;50.744;7.086;2023-12-14T07:38:16;8.20;99.90
15765;DHT22;7983;50.744;7.086;2023-12-14T07:40:41;8.20;99.90
15765;DHT22;7983;50.744;7.086;2023-12-14T07:43:10;8.20;99.90
15765;DHT22;7983;50.744;7.086;2023-12-14T07:45:35;8.20;99.90
15765;DHT22;7983;50.744;7.086;2023-12-14T07:48:01;8.20;99.90
15765;DHT22;7983;50.744;7.086;2023-12-14T07:50:31;8.20;99.90
15765;DHT22;7983;50.744;7.086;2023-12-14T07:53:02;8.30;99.90
15765;DHT22;7983;50.744;7.086;2023-12-14T07:55:28;8.10;99.90
15765;DHT22;7983;50.744;7.086;2023-12-14T07:57:58;8.10;99.90
15765;DHT22;7983;50.744;7.086;2023-12-14T08:00:26;8.10;99.90
15765;DHT22;7983;50.744;7.086;2023-12-14T08:02:54;8.10;99.90
15765;DHT22;7983;50.744;7.086;2023-12-14T08:05:22;8.20;99.90
15765;DHT22;7983;50.744;7.086;2023-12-14T08:07:48;8.10;99.90
15765;DHT22;7983;50.744;7.086;2023-12-14T08:10:13;8.10;99.90
15765;DHT22;7983;50.744;7.086;2023-12-14T08:12:39;8.20;99.90
15765;DHT22;7983;50.744;7.086;2023-12-14T08:15:10;8.20;99.90
15765;DHT22;7983;50.744;7.086;2023-12-14T08:17:37;8.10;99.90
15765;DHT22;7983;50.744;7.086;2023-12-14T08:20:05;8.10;99.90
15765;DHT22;7983;50.744;7.086;2023-12-14T08:22:34;8.10;99.90
15765;DHT22;7983;50.744;7.086;2023-12-14T08:25:02;8.10;99.90
15765;DHT22;7983;50.744;7.086;2023-12-14T08:27:29;8.10;99.90
15765;DHT22;7983;50.744;7.086;2023-12-14T08:29:54;8.00;99.90
15765;DHT22;7983;50.744;7.086;2023-12-14T08:32:25;8.00;99.90
15765;DHT22;7983;50.744;7.086;2023-12-14T08:34:53;8.00;99.90
15765;DHT22;7983;50.744;7.086;2023-12-14T08:37:21;8.00;99.90
15765;DHT22;7983;50.744;7.086;2023-12-14T08:39:49;7.90;99.90
15765;DHT22;7983;50.744;7.086;2023-12-14T08:42:14;7.90;99.90
15765;DHT22;7983;50.744;7.086;2023-12-14T08:44:42;7.90;99.90
15765;DHT22;7983;50.744;7.086;2023-12-14T08:47:08;7.90;99.90
15765;DHT22;7983;50.744;7.086;2023-12-14T08:49:41;7.90;99.90
15765;DHT22;7983;50.744;7.086;2023-12-14T08:52:09;7.90;99.90
15765;DHT22;7983;50.744;7.086;2023-12-14T08:54:37;7.90;99.90
15765;DHT22;7983;50.744;7.086;2023-12-14T08:57:05;7.90;99.90
15765;DHT22;7983;50.744;7.086;2023-12-14T08:59:30;7.90;99.90
15765;DHT22;7983;50.744;7.086;2023-12-14T09:01:56;7.90;99.90
15765;DHT22;7983;50.744;7.086;2023-12-14T09:04:22;7.90;99.90
15765;DHT22;7983;50.744;7.086;2023-12-14T09:06:50;7.90;99.90
15765;DHT22;7983;50.744;7.086;2023-12-14T09:09:19;7.80;99.90
15765;DHT22;7983;50.744;7.086;2023-12-14T09:11:45;7.90;99.90
15765;DHT22;7983;50.744;7.086;2023-12-14T09:14:10;7.90;99.90
15765;DHT22;7983;50.744;7.086;2023-12-14T09:16:36;8.00;99.90
15765;DHT22;7983;50.744;7.086;2023-12-14T09:19:02;7.90;99.90
15765;DHT22;7983;50.744;7.086;2023-12-14T09:21:27;7.90;99.90
15765;DHT22;7983;50.744;7.086;2023-12-14T09:23:53;8.00;99.90
15765;DHT22;7983;50.744;7.086;2023-12-14T09:26:21;7.90;99.90
15765;DHT22;7983;50.744;7.086;2023-12-14T09:28:46;7.90;99.90
15765;DHT22;7983;50.744;7.086;2023-12-14T09:31:12;8.00;99.90
15765;DHT22;7983;50.744;7.086;2023-12-14T09:33:41;8.00;99.90
15765;DHT22;7983;50.744;7.086;2023-12-14T09:36:09;8.00;99.90
15765;DHT22;7983;50.744;7.086;2023-12-14T09:38:37;8.00;99.90
15765;DHT22;7983;50.744;7.086;2023-12-14T09:41:03;7.90;99.90
15765;DHT22;7983;50.744;7.086;2023-12-14T09:43:34;8.00;99.90
15765;DHT22;7983;50.744;7.086;2023-12-14T09:46:01;8.00;99.90
15765;DHT22;7983;50.744;7.086;2023-12-14T09:48:28;7.90;99.90
15765;DHT22;7983;50.744;7.086;2023-12-14T09:50:58;7.90;99.90
15765;DHT22;7983;50.744;7.086;2023-12-14T09:53:25;7.90;99.90
15765;DHT22;7983;50.744;7.086;2023-12-14T09:55:51;7.90;99.90
15765;DHT22;7983;50.744;7.086;2023-12-14T09:58:17;7.80;99.90
15765;DHT22;7983;50.744;7.086;2023-12-14T10:00:45;7.90;99.90
15765;DHT22;7983;50.744;7.086;2023-12-14T10:03:28;7.80;99.90
15765;DHT22;7983;50.744;7.086;2023-12-14T10:05:59;7.80;99.90
15765;DHT22;7983;50.744;7.086;2023-12-14T10:08:27;7.80;99.90
15765;DHT22;7983;50.744;7.086;2023-12-14T10:10:54;7.80;99.90
15765;DHT22;7983;50.744;7.086;2023-12-14T10:13:35;7.70;99.90
15765;DHT22;7983;50.744;7.086;2023-12-14T10:16:04;7.70;99.90
15765;DHT22;7983;50.744;7.086;2023-12-14T10:18:31;7.70;99.90
15765;DHT22;7983;50.744;7.086;2023-12-14T10:20:59;7.70;99.90
15765;DHT22;7983;50.744;7.086;2023-12-14T10:23:27;7.70;99.90
15765;DHT22;7983;50.744;7.086;2023-12-14T10:25:53;7.60;99.90
15765;DHT22;7983;50.744;7.086;2023-12-14T10:28:22;7.60;99.90
15765;DHT22;7983;50.744;7.086;2023-12-14T10:30:52;7.50;99.90
15765;DHT22;7983;50.744;7.086;2023-12-14T10:33:17;7.70;99.90
15765;DHT22;7983;50.744;7.086;2023-12-14T10:35:43;7.60;99.90
15765;DHT22;7983;50.744;7.086;2023-12-14T10:38:11;7.60;99.90
15765;DHT22;7983;50.744;7.086;2023-12-14T10:40:42;7.60;99.90
15765;DHT22;7983;50.744;7.086;2023-12-14T10:43:15;7.60;99.90
15765;DHT22;7983;50.744;7.086;2023-12-14T10:45:43;7.50;99.90
15765;DHT22;7983;50.744;7.086;2023-12-14T10:48:09;7.50;99.90
15765;DHT22;7983;50.744;7.086;2023-12-14T10:50:38;7.50;99.90
15765;DHT22;7983;50.744;7.086;2023-12-14T10:53:07;7.60;99.90
15765;DHT22;7983;50.744;7.086;2023-12-14T10:55:38;7.50;99.90
15765;DHT22;7983;50.744;7.086;2023-12-14T10:58:08;7.70;99.90
15765;DHT22;7983;50.744;7.086;2023-12-14T11:00:36;7.50;99.90
15765;DHT22;7983;50.744;7.086;2023-12-14T11:03:04;7.50;99.90
15765;DHT22;7983;50.744;7.086;2023-12-14T11:05:33;7.50;99.90
15765;DHT22;7983;50.744;7.086;2023-12-14T11:08:06;7.50;99.90
15765;DHT22;7983;50.744;7.086;2023-12-14T11:10:41;7.50;99.90
15765;DHT22;7983;50.744;7.086;2023-12-14T11:13:12;7.50;99.90
15765;DHT22;7983;50.744;7.086;2023-12-14T11:15:49;7.40;99.90
15765;DHT22;7983;50.744;7.086;2023-12-14T11:23:16;7.40;99.90
15765;DHT22;7983;50.744;7.086;2023-12-14T11:25:48;7.30;99.90
15765;DHT22;7983;50.744;7.086;2023-12-14T11:28:15;7.30;99.90
15765;DHT22;7983;50.744;7.086;2023-12-14T11:30:43;7.30;99.90
15765;DHT22;7983;50.744;7.086;2023-12-14T11:33:11;7.30;99.90
15765;DHT22;7983;50.744;7.086;2023-12-14T11:35:39;7.30;99.90
15765;DHT22;7983;50.744;7.086;2023-12-14T11:38:05;7.30;99.90
15765;DHT22;7983;50.744;7.086;2023-12-14T11:40:45;7.20;99.90
15765;DHT22;7983;50.744;7.086;2023-12-14T11:43:13;7.30;99.90
15765;DHT22;7983;50.744;7.086;2023-12-14T11:45:46;7.40;99.90
15765;DHT22;7983;50.744;7.086;2023-12-14T11:48:16;7.30;99.90
15765;DHT22;7983;50.744;7.086;2023-12-14T11:50:42;7.30;99.90
15765;DHT22;7983;50.744;7.086;2023-12-14T11:53:09;7.40;99.90
15765;DHT22;7983;50.744;7.086;2023-12-14T11:55:37;7.40;99.90
15765;DHT22;7983;50.744;7.086;2023-12-14T11:58:03;7.40;99.90
15765;DHT22;7983;50.744;7.086;2023-12-14T12:00:30;7.40;99.90
15765;DHT22;7983;50.744;7.086;2023-12-14T12:05:42;7.40;99.90
15765;DHT22;7983;50.744;7.086;2023-12-14T12:08:09;7.50;99.90
15765;DHT22;7983;50.744;7.086;2023-12-14T12:10:39;7.50;99.90
15765;DHT22;7983;50.744;7.086;2023-12-14T12:13:07;7.50;99.90
15765;DHT22;7983;50.744;7.086;2023-12-14T12:15:35;7.50;99.90
15765;DHT22;7983;50.744;7.086;2023-12-14T12:20:31;7.50;99.90
15765;DHT22;7983;50.744;7.086;2023-12-14T12:22:58;7.60;99.90
15765;DHT22;7983;50.744;7.086;2023-12-14T12:25:23;7.60;99.90
15765;DHT22;7983;50.744;7.086;2023-12-14T12:27:49;7.50;99.90
15765;DHT22;7983;50.744;7.086;2023-12-14T12:30:15;7.60;99.90
15765;DHT22;7983;50.744;7.086;2023-12-14T12:32:41;7.60;99.90
15765;DHT22;7983;50.744;7.086;2023-12-14T12:35:07;7.60;99.90
15765;DHT22;7983;50.744;7.086;2023-12-14T12:37:34;7.60;99.90
15765;DHT22;7983;50.744;7.086;2023-12-14T12:39:59;7.60;99.90
15765;DHT22;7983;50.744;7.086;2023-12-14T12:42:25;7.60;99.90
15765;DHT22;7983;50.744;7.086;2023-12-14T12:44:53;7.70;99.90
15765;DHT22;7983;50.744;7.086;2023-12-14T12:47:19;7.70;99.90
15765;DHT22;7983;50.744;7.086;2023-12-14T12:49:44;7.70;99.90
15765;DHT22;7983;50.744;7.086;2023-12-14T12:52:10;7.60;99.90
15765;DHT22;7983;50.744;7.086;2023-12-14T12:54:35;7.70;99.90
15765;DHT22;7983;50.744;7.086;2023-12-14T12:57:01;7.60;99.90
15765;DHT22;7983;50.744;7.086;2023-12-14T12:59:27;7.50;99.90
15765;DHT22;7983;50.744;7.086;2023-12-14T13:01:54;7.50;99.90
15765;DHT22;7983;50.744;7.086;2023-12-14T13:04:21;7.50;99.90
15765;DHT22;7983;50.744;7.086;2023-12-14T13:06:47;7.60;99.90
15765;DHT22;7983;50.744;7.086;2023-12-14T13:09:17;7.50;99.90
15765;DHT22;7983;50.744;7.086;2023-12-14T13:11:43;7.50;99.90
15765;DHT22;7983;50.744;7.086;2023-12-14T13:14:09;7.50;99.90
15765;DHT22;7983;50.744;7.086;2023-12-14T13:16:35;7.40;99.90
15765;DHT22;7983;50.744;7.086;2023-12-14T13:19:04;7.50;99.90
15765;DHT22;7983;50.744;7.086;2023-12-14T13:21:35;7.50;99.90
15765;DHT22;7983;50.744;7.086;2023-12-14T13:24:03;7.50;99.90
15765;DHT22;7983;50.744;7.086;2023-12-14T13:26:29;7.50;99.90
15765;DHT22;7983;50.744;7.086;2023-12-14T13:28:57;7.50;99.90
15765;DHT22;7983;50.744;7.086;2023-12-14T13:31:23;7.50;99.90
15765;DHT22;7983;50.744;7.086;2023-12-14T13:33:49;7.60;99.90
15765;DHT22;7983;50.744;7.086;2023-12-14T13:36:18;7.60;99.90
15765;DHT22;7983;50.744;7.086;2023-12-14T13:38:47;7.60;99.90
15765;DHT22;7983;50.744;7.086;2023-12-14T13:41:15;7.60;99.90
15765;DHT22;7983;50.744;7.086;2023-12-14T13:43:40;7.70;99.90
15765;DHT22;7983;50.744;7.086;2023-12-14T13:46:08;7.70;99.90
15765;DHT22;7983;50.744;7.086;2023-12-14T13:48:34;7.70;99.90
15765;DHT22;7983;50.744;7.086;2023-12-14T13:50:59;7.70;99.90
15765;DHT22;7983;50.744;7.086;2023-12-14T13:53:25;7.70;99.90
15765;DHT22;7983;50.744;7.086;2023-12-14T13:55:51;7.80;99.90
15765;DHT22;7983;50.744;7.086;2023-12-14T13:58:17;7.80;99.90
15765;DHT22;7983;50.744;7.086;2023-12-14T14:00:46;7.80;99.90
15765;DHT22;7983;50.744;7.086;2023-12-14T14:03:16;7.70;99.90
15765;DHT22;7983;50.744;7.086;2023-12-14T14:05:41;7.80;99.90
15765;DHT22;7983;50.744;7.086;2023-12-14T14:08:09;7.80;99.90
15765;DHT22;7983;50.744;7.086;2023-12-14T14:10:37;7.80;99.90
15765;DHT22;7983;50.744;7.086;2023-12-14T14:13:03;7.70;99.90
15765;DHT22;7983;50.744;7.086;2023-12-14T14:15:29;7.70;99.90
15765;DHT22;7983;50.744;7.086;2023-12-14T14:17:55;7.70;99.90
15765;DHT22;7983;50.744;7.086;2023-12-14T14:20:21;7.70;99.90
15765;DHT22;7983;50.744;7.086;2023-12-14T14:22:47;7.60;99.90
15765;DHT22;7983;50.744;7.086;2023-12-14T14:25:16;7.50;99.90
15765;DHT22;7983;50.744;7.086;2023-12-14T14:27:44;7.50;99.90
15765;DHT22;7983;50.744;7.086;2023-12-14T14:30:15;7.50;99.90
15765;DHT22;7983;50.744;7.086;2023-12-14T14:32:44;7.50;99.90
15765;DHT22;7983;50.744;7.086;2023-12-14T14:35:13;7.50;99.90
15765;DHT22;7983;50.744;7.086;2023-12-14T14:37:39;7.50;99.90
15765;DHT22;7983;50.744;7.086;2023-12-14T14:40:11;7.40;99.90
15765;DHT22;7983;50.744;7.086;2023-12-14T14:42:37;7.50;99.90
15765;DHT22;7983;50.744;7.086;2023-12-14T14:45:02;7.50;99.90
15765;DHT22;7983;50.744;7.086;2023-12-14T14:47:28;7.50;99.90
15765;DHT22;7983;50.744;7.086;2023-12-14T14:49:56;7.50;99.90
15765;DHT22;7983;50.744;7.086;2023-12-14T14:52:28;7.60;99.90
15765;DHT22;7983;50.744;7.086;2023-12-14T14:54:54;7.50;99.90
15765;DHT22;7983;50.744;7.086;2023-12-14T14:57:22;7.60;99.90
15765;DHT22;7983;50.744;7.086;2023-12-14T14:59:51;7.60;99.90
15765;DHT22;7983;50.744;7.086;2023-12-14T15:02:17;7.70;99.90
15765;DHT22;7983;50.744;7.086;2023-12-14T15:04:45;7.60;99.90
15765;DHT22;7983;50.744;7.086;2023-12-14T15:07:11;7.60;99.90
15765;DHT22;7983;50.744;7.086;2023-12-14T15:09:36;7.60;99.90
15765;DHT22;7983;50.744;7.086;2023-12-14T15:12:07;7.60;99.90
15765;DHT22;7983;50.744;7.086;2023-12-14T15:14:32;7.50;99.90
15765;DHT22;7983;50.744;7.086;2023-12-14T15:16:58;7.50;99.90
15765;DHT22;7983;50.744;7.086;2023-12-14T15:19:24;7.50;99.90
15765;DHT22;7983;50.744;7.086;2023-12-14T15:21:49;7.40;99.90
15765;DHT22;7983;50.744;7.086;2023-12-14T15:24:15;7.40;99.90
15765;DHT22;7983;50.744;7.086;2023-12-14T15:26:41;7.40;99.90
15765;DHT22;7983;50.744;7.086;2023-12-14T15:29:09;7.30;99.90
15765;DHT22;7983;50.744;7.086;2023-12-14T15:31:35;7.30;99.90
15765;DHT22;7983;50.744;7.086;2023-12-14T15:34:01;7.30;99.90
15765;DHT22;7983;50.744;7.086;2023-12-14T15:36:29;7.30;99.90
15765;DHT22;7983;50.744;7.086;2023-12-14T15:38:56;7.20;99.90
15765;DHT22;7983;50.744;7.086;2023-12-14T15:41:24;7.20;99.90
15765;DHT22;7983;50.744;7.086;2023-12-14T15:43:50;7.20;99.90
15765;DHT22;7983;50.744;7.086;2023-12-14T15:46:20;7.20;99.90
15765;DHT22;7983;50.744;7.086;2023-12-14T15:48:47;7.20;99.90
15765;DHT22;7983;50.744;7.086;2023-12-14T15:51:14;7.20;99.90
15765;DHT22;7983;50.744;7.086;2023-12-14T15:53:40;7.20;99.90
15765;DHT22;7983;50.744;7.086;2023-12-14T15:56:06;7.10;99.90
15765;DHT22;7983;50.744;7.086;2023-12-14T15:58:34;7.10;99.90
15765;DHT22;7983;50.744;7.086;2023-12-14T16:01:00;7.10;99.90
15765;DHT22;7983;50.744;7.086;2023-12-14T16:03:26;7.10;99.90
15765;DHT22;7983;50.744;7.086;2023-12-14T16:05:52;7.10;99.90
15765;DHT22;7983;50.744;7.086;2023-12-14T16:08:17;7.10;99.90
15765;DHT22;7983;50.744;7.086;2023-12-14T16:10:43;7.10;99.90